Main page
METAR-TAF:

METAR-TAF

Airports :

RAF Topcliffe

Topcliffe, England

latitude: 54-12N, longitude: 001-23W, elevation: 28 m

Current weather observation

The report was made 1 hour and 7 minutes ago, at 06:50 UTC
Wind 1 kt from the South/Southeast
Temperature 3°C
Humidity 93%
Pressure 1015 hPa
Visibility: 2700 m
mist

METAR: EGXZ 200650Z AUTO 15001KT 2700 BR OVC008/// 03/02 Q1015

Time: 07:57 (07:57 UTC)


TAF: missing

Weather observations and forecasts of more than 4000 airports (METAR and TAF reports).

The available stations are represented by yellow and red dots on the map.

Hover mouse over dot to see the name of the station.

Then click to see weather observations and forecasts.

To change the map : click on the green buttons with a black cross to zoom in, on the green button with a dash to zoom out, or on the green arrows for adjacent maps.


METAR-TAF: